Time;durP1;ratioP1;P1;durP2;ratioP2;P2;SDS_P1;SDS_P2;PMS_P1;PMS_P2;Temp;Humidity;BMP_temperature;BMP_pressure;BME280_temperature;BME280_humidity;BME280_pressure;Samples;Min_cycle;Max_cycle;Signal;HPM_P1;HPM_P2
2023/06/24 00:00:57;;;;;;;8.93;5.55;;;;;;;22.88;nan;61905.97;5092218;28;20210;-60
2023/06/24 00:03:22;;;;;;;7.45;5.05;;;;;;;22.53;nan;61829.16;5092871;28;20620;-60
2023/06/24 00:05:49;;;;;;;8.40;5.32;;;;;;;22.65;nan;61960.56;5092676;28;20165;-60
2023/06/24 00:08:19;;;;;;;9.55;5.40;;;;;;;22.56;nan;61829.97;5092607;28;20157;-59
2023/06/24 00:10:47;;;;;;;9.43;5.88;;;;;;;22.67;nan;61967.47;5092551;28;20244;-59
2023/06/24 00:13:14;;;;;;;8.93;5.38;;;;;;;22.38;nan;61789.84;5092088;28;20633;-59
2023/06/24 00:15:42;;;;;;;9.50;5.43;;;;;;;22.37;nan;61843.38;5091784;28;20581;-60
2023/06/24 00:18:09;;;;;;;9.48;5.68;;;;;;;22.63;nan;61864.53;5092329;28;20169;-60
2023/06/24 00:20:35;;;;;;;8.20;5.03;;;;;;;22.56;nan;61952.38;5092342;28;20527;-60
2023/06/24 00:23:00;;;;;;;7.60;4.70;;;;;;;22.44;nan;61838.31;5092013;28;20185;-59
2023/06/24 00:25:26;;;;;;;9.27;4.97;;;;;;;22.56;nan;61906.06;5092905;28;20558;-61
2023/06/24 00:27:51;;;;;;;9.13;5.30;;;;;;;22.47;nan;62075.53;5092003;28;20213;-60
2023/06/24 00:30:17;;;;;;;7.43;4.78;;;;;;;22.36;nan;61966.66;5092099;28;20225;-60
2023/06/24 00:32:42;;;;;;;8.07;4.70;;;;;;;22.24;nan;62049.88;5091853;28;20174;-60
2023/06/24 00:35:10;;;;;;;7.28;4.78;;;;;;;22.51;nan;61999.34;5091783;28;20188;-59
2023/06/24 00:37:36;;;;;;;7.90;4.90;;;;;;;22.29;nan;61946.22;5091700;28;20242;-60
2023/06/24 00:40:03;;;;;;;6.75;4.70;;;;;;;22.38;nan;61860.13;5092262;28;20157;-59
2023/06/24 00:42:29;;;;;;;7.50;4.90;;;;;;;22.01;nan;61748.44;5091796;28;20185;-61
2023/06/24 00:44:54;;;;;;;8.00;5.05;;;;;;;22.15;nan;61841.81;5094112;28;20518;-60
2023/06/24 00:47:20;;;;;;;7.80;4.85;;;;;;;22.27;nan;61899.72;5096466;28;20188;-60
2023/06/24 00:49:45;;;;;;;8.98;5.28;;;;;;;22.20;nan;61852.13;5096576;28;20170;-59
2023/06/24 00:52:15;;;;;;;6.75;4.57;;;;;;;22.16;nan;61792.94;5096132;28;20173;-60
2023/06/24 00:54:41;;;;;;;9.43;5.30;;;;;;;21.93;nan;61807.00;5095766;28;20187;-60
2023/06/24 00:57:07;;;;;;;8.57;4.55;;;;;;;22.13;nan;61815.56;5095794;28;20205;-59
2023/06/24 00:59:34;;;;;;;8.75;4.85;;;;;;;22.22;nan;61935.13;5096202;28;20169;-60
2023/06/24 01:02:04;;;;;;;9.50;4.57;;;;;;;22.03;nan;61823.00;5096071;28;20228;-59
2023/06/24 01:04:30;;;;;;;7.18;5.03;;;;;;;21.88;nan;61782.53;5096100;28;20166;-60
2023/06/24 01:06:57;;;;;;;7.80;4.90;;;;;;;21.87;nan;61805.38;5095947;28;20170;-60
2023/06/24 01:09:23;;;;;;;7.47;5.03;;;;;;;21.84;nan;61952.28;5095675;28;20161;-60
2023/06/24 01:11:48;;;;;;;8.77;4.70;;;;;;;22.21;nan;61822.03;5095783;28;20165;-59
2023/06/24 01:14:14;;;;;;;7.00;4.47;;;;;;;21.97;nan;61816.75;5095737;28;20214;-59
2023/06/24 01:16:54;;;;;;;7.43;4.78;;;;;;;21.91;nan;61799.53;5095275;28;20257;-59
2023/06/24 01:19:57;;;;;;;6.70;4.25;;;;;;;22.08;nan;61934.81;5095663;28;20176;-60
2023/06/24 01:22:35;;;;;;;7.30;4.47;;;;;;;22.03;nan;61870.41;5095237;28;20612;-60
2023/06/24 01:25:06;;;;;;;8.48;4.70;;;;;;;22.11;nan;61912.75;5095622;28;20188;-60
2023/06/24 01:27:55;;;;;;;6.15;4.18;;;;;;;21.94;nan;61794.56;5095613;28;20192;-60
2023/06/24 01:30:29;;;;;;;6.80;4.13;;;;;;;21.97;nan;61894.25;5095551;28;20215;-60
2023/06/24 01:33:09;;;;;;;7.07;4.28;;;;;;;21.99;nan;61784.63;5094943;28;20181;-60
2023/06/24 01:35:36;;;;;;;7.55;4.28;;;;;;;21.64;nan;61698.66;5095430;28;20236;-58
2023/06/24 01:38:10;;;;;;;7.15;4.22;;;;;;;21.63;nan;61735.97;5095182;28;20201;-59
2023/06/24 01:40:42;;;;;;;5.55;4.13;;;;;;;21.53;nan;61883.81;5095241;28;20177;-59
2023/06/24 01:43:09;;;;;;;8.27;4.03;;;;;;;21.83;nan;61789.88;5094992;28;20177;-59
2023/06/24 01:45:41;;;;;;;6.53;4.30;;;;;;;21.74;nan;61782.25;5095578;28;20166;-60
2023/06/24 01:48:16;;;;;;;6.35;4.22;;;;;;;21.76;nan;61743.50;5095233;28;20165;-60
2023/06/24 01:50:56;;;;;;;6.07;3.95;;;;;;;21.60;nan;61883.97;5095237;28;20169;-60
2023/06/24 01:53:23;;;;;;;6.32;4.03;;;;;;;21.81;nan;61860.44;5093948;28;20189;-60
2023/06/24 01:55:50;;;;;;;6.68;3.97;;;;;;;21.84;nan;61747.34;5095077;28;20579;-60
2023/06/24 01:58:18;;;;;;;7.97;4.50;;;;;;;21.74;nan;61743.25;5095153;28;20562;-60
2023/06/24 02:00:43;;;;;;;6.90;4.40;;;;;;;21.61;nan;61669.25;5094714;28;20281;-59
2023/06/24 02:03:09;;;;;;;7.00;4.55;;;;;;;21.32;nan;61750.75;5094692;28;20311;-60
2023/06/24 02:05:39;;;;;;;9.65;4.20;;;;;;;19.31;nan;63236.59;5094876;28;20628;-61
2023/06/24 02:08:08;;;;;;;7.43;4.65;;;;;;;21.55;nan;61845.03;5094268;28;20593;-60
2023/06/24 02:10:37;;;;;;;7.60;5.03;;;;;;;21.50;nan;61641.75;5093776;28;20248;-61
2023/06/24 02:13:05;;;;;;;7.75;4.60;;;;;;;21.47;nan;61741.78;5094950;28;20245;-60
2023/06/24 02:15:31;;;;;;;6.75;4.32;;;;;;;21.12;nan;61819.59;5094268;28;20570;-60
2023/06/24 02:17:57;;;;;;;7.90;4.30;;;;;;;20.74;nan;61704.28;5094226;28;20651;-59
2023/06/24 02:20:28;;;;;;;10.00;4.38;;;;;;;21.37;nan;61870.81;5094025;28;20660;-60
2023/06/24 02:22:54;;;;;;;7.32;4.55;;;;;;;21.06;nan;61834.13;5094786;28;20178;-60
2023/06/24 02:25:20;;;;;;;7.05;4.60;;;;;;;21.41;nan;61805.19;5094665;28;20161;-60
2023/06/24 02:27:46;;;;;;;7.32;4.85;;;;;;;21.29;nan;61888.28;5094468;28;20172;-60
2023/06/24 02:30:14;;;;;;;8.48;4.28;;;;;;;21.01;nan;61677.19;5094369;28;20150;-60
2023/06/24 02:32:39;;;;;;;8.48;4.60;;;;;;;21.37;nan;61848.00;5094154;28;20177;-58
2023/06/24 02:35:07;;;;;;;6.47;4.35;;;;;;;21.42;nan;61819.31;5093825;28;20685;-60
2023/06/24 02:37:32;;;;;;;6.90;4.70;;;;;;;21.01;nan;61732.31;5094067;28;20197;-61
2023/06/24 02:39:59;;;;;;;7.47;4.60;;;;;;;21.32;nan;61810.56;5094205;28;20208;-60
2023/06/24 02:42:25;;;;;;;5.82;4.22;;;;;;;21.33;nan;61806.50;5094048;28;20166;-59
2023/06/24 02:44:51;;;;;;;8.07;4.47;;;;;;;21.23;nan;61876.28;5094088;28;20253;-60
2023/06/24 02:47:18;;;;;;;8.60;5.00;;;;;;;21.31;nan;61765.81;5092862;28;20744;-59
2023/06/24 02:49:46;;;;;;;7.57;4.18;;;;;;;21.17;nan;61739.53;5093228;28;20648;-60
2023/06/24 02:52:12;;;;;;;5.97;4.22;;;;;;;20.93;nan;61702.47;5093391;28;20247;-60
2023/06/24 02:54:39;;;;;;;7.57;4.50;;;;;;;21.09;nan;61987.66;5093520;28;20169;-60
2023/06/24 02:57:06;;;;;;;7.03;4.40;;;;;;;21.02;nan;61980.25;5093485;28;20157;-59
2023/06/24 02:59:32;;;;;;;7.15;4.43;;;;;;;21.12;nan;61872.13;5093515;28;20280;-61
2023/06/24 03:01:59;;;;;;;7.00;4.47;;;;;;;19.07;nan;63408.25;5092760;28;20266;-61
2023/06/24 03:04:25;;;;;;;6.18;4.15;;;;;;;21.57;nan;61711.53;5092786;28;20184;-59
2023/06/24 03:06:52;;;;;;;7.78;4.20;;;;;;;22.06;nan;61919.53;5092571;28;20166;-60
2023/06/24 03:09:18;;;;;;;7.65;4.35;;;;;;;22.01;nan;61872.78;5092946;28;20169;-59
2023/06/24 03:11:44;;;;;;;7.32;4.13;;;;;;;22.64;nan;61943.81;5093272;28;20185;-60
2023/06/24 03:14:10;;;;;;;10.77;4.72;;;;;;;22.93;nan;62004.34;5092698;28;20174;-60
2023/06/24 03:16:36;;;;;;;8.45;4.65;;;;;;;23.26;nan;62016.38;5091139;28;20205;-60
2023/06/24 03:19:02;;;;;;;7.57;4.70;;;;;;;23.60;nan;62041.47;5092951;28;20180;-60
2023/06/24 03:21:28;;;;;;;7.13;4.05;;;;;;;23.87;nan;62154.56;5093902;28;20208;-60
2023/06/24 03:23:56;;;;;;;7.75;4.85;;;;;;;24.29;nan;62178.97;5093129;28;20169;-60
2023/06/24 03:26:22;;;;;;;7.15;4.85;;;;;;;25.08;nan;62286.78;5093246;28;20173;-60
2023/06/24 03:28:48;;;;;;;6.85;4.30;;;;;;;25.53;nan;62433.84;5092438;28;20184;-61
2023/06/24 03:31:15;;;;;;;7.38;4.30;;;;;;;25.98;nan;62408.81;5088282;28;20230;-60
2023/06/24 03:33:44;;;;;;;6.43;4.15;;;;;;;26.03;nan;62372.03;5092896;28;20177;-59
2023/06/24 03:36:10;;;;;;;7.15;4.63;;;;;;;26.25;nan;62316.50;5093223;28;20651;-60
2023/06/24 03:38:35;;;;;;;7.18;4.40;;;;;;;26.65;nan;62536.69;5092653;28;20642;-60
2023/06/24 03:41:01;;;;;;;6.78;3.97;;;;;;;25.87;nan;62362.19;5092876;28;20196;-60
2023/06/24 03:43:26;;;;;;;7.10;4.32;;;;;;;26.47;nan;62414.44;5092926;28;20173;-61
2023/06/24 03:45:51;;;;;;;7.47;4.30;;;;;;;26.90;nan;62434.16;5092458;28;20174;-60
2023/06/24 03:48:17;;;;;;;8.48;4.22;;;;;;;27.82;nan;62446.22;5092763;28;20672;-60
2023/06/24 03:50:42;;;;;;;6.88;4.70;;;;;;;28.34;nan;62641.78;5093097;28;20169;-60
2023/06/24 03:53:07;;;;;;;6.93;4.55;;;;;;;28.63;nan;62755.38;5092330;28;20256;-60
2023/06/24 03:55:33;;;;;;;8.38;4.45;;;;;;;28.91;nan;62782.81;5092339;28;20660;-60
2023/06/24 03:57:58;;;;;;;5.70;4.05;;;;;;;29.34;nan;62736.19;5092443;28;20239;-59
2023/06/24 04:00:24;;;;;;;6.63;4.25;;;;;;;29.39;nan;62802.50;5092262;28;20708;-60
2023/06/24 04:02:49;;;;;;;6.85;4.28;;;;;;;30.14;nan;62937.50;5092074;28;20228;-60
2023/06/24 04:05:15;;;;;;;7.18;4.90;;;;;;;30.11;nan;63243.16;5092375;28;20191;-60
2023/06/24 04:07:41;;;;;;;7.47;4.50;;;;;;;29.94;nan;63017.91;5090787;28;20424;-60
2023/06/24 04:10:09;;;;;;;10.63;4.63;;;;;;;30.79;nan;63080.25;5090712;28;20666;-60
2023/06/24 04:12:35;;;;;;;7.30;4.53;;;;;;;30.06;nan;63173.50;5092288;28;20644;-60
2023/06/24 04:15:03;;;;;;;8.18;4.80;;;;;;;29.73;nan;62964.78;5091935;28;20189;-60
2023/06/24 04:17:28;;;;;;;6.47;4.28;;;;;;;;;;5091957;28;20637;-59
2023/06/24 04:19:53;;;;;;;6.72;4.05;;;;;;;29.76;nan;62900.28;5090535;28;20173;-59
2023/06/24 04:22:19;;;;;;;6.70;4.50;;;;;;;30.09;nan;63250.81;5092442;28;20205;-59
2023/06/24 04:24:44;;;;;;;7.93;4.32;;;;;;;30.12;nan;63122.41;5092479;28;20165;-60
2023/06/24 04:27:10;;;;;;;8.40;4.60;;;;;;;29.75;nan;63212.16;5091487;28;20173;-59
2023/06/24 04:29:35;;;;;;;6.95;4.43;;;;;;;28.58;nan;62673.94;5091270;28;20211;-59
2023/06/24 04:32:01;;;;;;;8.05;4.55;;;;;;;28.49;nan;62693.13;5091219;28;20154;-60
2023/06/24 04:34:26;;;;;;;5.75;3.85;;;;;;;28.44;nan;62728.91;5091168;28;20165;-60
2023/06/24 04:36:52;;;;;;;6.55;4.35;;;;;;;28.29;nan;62716.97;5091522;28;20244;-62
2023/06/24 04:39:18;;;;;;;7.28;4.38;;;;;;;28.89;nan;62877.91;5091702;28;20226;-61
2023/06/24 04:41:43;;;;;;;6.78;4.35;;;;;;;28.85;nan;62783.25;5090982;28;20173;-60
2023/06/24 04:44:08;;;;;;;6.70;4.47;;;;;;;28.98;nan;62809.25;5091026;28;20176;-61
2023/06/24 04:46:34;;;;;;;7.40;4.53;;;;;;;29.02;nan;62915.34;5091343;28;20173;-60
2023/06/24 04:49:00;;;;;;;7.40;4.63;;;;;;;28.58;nan;62742.31;5091885;28;20640;-60
2023/06/24 04:51:26;;;;;;;7.82;4.55;;;;;;;28.50;nan;62759.44;5091839;28;20227;-60
2023/06/24 04:53:52;;;;;;;7.07;4.53;;;;;;;28.73;nan;62740.53;5091897;28;20314;-61
2023/06/24 04:56:17;;;;;;;6.82;4.32;;;;;;;29.19;nan;62932.25;5091863;28;20202;-60
2023/06/24 04:58:58;;;;;;;6.28;4.70;;;;;;;29.38;nan;62922.50;5091921;28;20541;-60
2023/06/24 05:01:24;;;;;;;7.13;4.90;;;;;;;29.22;nan;62890.94;5091607;28;20220;-62
2023/06/24 05:03:50;;;;;;;7.80;4.50;;;;;;;29.06;nan;62930.47;5092018;28;20533;-62
2023/06/24 05:06:15;;;;;;;8.38;4.10;;;;;;;28.89;nan;62924.69;5091921;28;20168;-60
2023/06/24 05:08:41;;;;;;;9.02;4.82;;;;;;;28.86;nan;62834.97;5092171;28;20546;-61
2023/06/24 05:11:06;;;;;;;6.68;4.63;;;;;;;29.06;nan;62756.75;5091795;28;20169;-60
2023/06/24 05:13:32;;;;;;;7.70;4.50;;;;;;;29.46;nan;62902.16;5091702;28;20176;-61
2023/06/24 05:15:57;;;;;;;8.57;4.35;;;;;;;30.33;nan;63043.16;5091791;28;20207;-61
2023/06/24 05:18:22;;;;;;;7.90;4.38;;;;;;;30.65;nan;63085.25;5092192;28;20173;-60
2023/06/24 05:20:48;;;;;;;6.03;4.50;;;;;;;30.77;nan;63109.03;5090123;28;20568;-64
2023/06/24 05:23:14;;;;;;;7.10;4.70;;;;;;;31.28;nan;63442.53;5091008;28;20256;-63
2023/06/24 05:25:39;;;;;;;8.98;4.50;;;;;;;31.63;nan;63312.69;5089733;28;20172;-61
2023/06/24 05:28:04;;;;;;;7.53;4.28;;;;;;;31.77;nan;63323.53;5090951;28;20208;-63
2023/06/24 05:30:30;;;;;;;8.02;3.92;;;;;;;32.31;nan;63377.91;5092231;28;20556;-62
2023/06/24 05:32:55;;;;;;;5.85;4.20;;;;;;;32.38;nan;63417.16;5094827;28;20173;-62
2023/06/24 05:35:21;;;;;;;6.38;4.20;;;;;;;32.75;nan;63576.44;5094845;28;20192;-62
2023/06/24 05:37:46;;;;;;;5.75;4.22;;;;;;;32.72;nan;63506.78;5094827;28;20164;-62
2023/06/24 05:40:12;;;;;;;8.40;4.47;;;;;;;33.17;nan;63732.56;5093400;28;20185;-63
2023/06/24 05:42:38;;;;;;;6.68;4.53;;;;;;;33.34;nan;63794.13;5093248;28;20227;-62
2023/06/24 05:45:04;;;;;;;8.18;4.57;;;;;;;33.38;nan;63608.47;5095027;28;20164;-62
2023/06/24 05:47:30;;;;;;;9.90;4.82;;;;;;;32.64;nan;63478.41;5094749;28;20203;-63
2023/06/24 05:49:55;;;;;;;7.93;4.72;;;;;;;31.75;nan;63368.81;5094985;28;20169;-59
2023/06/24 05:52:21;;;;;;;6.93;4.55;;;;;;;31.12;nan;63287.25;5094657;28;20169;-59
2023/06/24 05:54:46;;;;;;;9.90;4.57;;;;;;;30.53;nan;63027.16;5094441;28;20172;-61
2023/06/24 05:57:12;;;;;;;7.18;4.75;;;;;;;29.89;nan;62904.09;5094692;28;20710;-60
2023/06/24 05:59:37;;;;;;;8.02;4.80;;;;;;;29.48;nan;63089.41;5094303;28;20238;-62
2023/06/24 06:02:03;;;;;;;6.47;4.68;;;;;;;29.05;nan;62750.91;5093985;28;20298;-60
2023/06/24 06:04:29;;;;;;;10.95;5.60;;;;;;;28.82;nan;62777.75;5094382;28;20173;-61
2023/06/24 06:06:55;;;;;;;10.07;6.28;;;;;;;28.17;nan;62753.75;5093905;28;20188;-59
2023/06/24 06:09:22;;;;;;;8.73;6.00;;;;;;;28.05;nan;62877.22;5094090;28;20227;-61
2023/06/24 06:11:47;;;;;;;11.30;6.50;;;;;;;27.91;nan;62768.59;5093920;28;20636;-61
2023/06/24 06:14:13;;;;;;;10.00;6.43;;;;;;;28.19;nan;62700.84;5094688;28;20165;-61
2023/06/24 06:16:39;;;;;;;9.55;6.38;;;;;;;27.90;nan;62678.09;5094166;28;20203;-61
2023/06/24 06:19:04;;;;;;;11.13;6.78;;;;;;;27.90;nan;62662.91;5093867;28;20240;-61
2023/06/24 06:21:29;;;;;;;8.90;5.93;;;;;;;27.58;nan;62689.28;5093881;28;20245;-60
2023/06/24 06:23:55;;;;;;;10.05;6.20;;;;;;;27.83;nan;62654.31;5094327;28;20187;-63
2023/06/24 06:26:21;;;;;;;12.60;5.95;;;;;;;27.83;nan;62664.84;5093313;28;20670;-60
2023/06/24 06:28:50;;;;;;;10.70;6.60;;;;;;;27.97;nan;62717.66;5093895;28;20632;-61
2023/06/24 06:31:15;;;;;;;9.15;6.28;;;;;;;27.78;nan;62638.09;5094134;28;20207;-61
2023/06/24 06:33:43;;;;;;;10.35;6.28;;;;;;;28.02;nan;62721.31;5093701;28;20214;-60
2023/06/24 06:36:11;;;;;;;8.82;6.03;;;;;;;27.61;nan;62667.03;5093565;28;20691;-62
2023/06/24 06:38:37;;;;;;;11.52;6.15;;;;;;;27.87;nan;62622.69;5093351;28;20244;-60
2023/06/24 06:41:02;;;;;;;11.57;7.00;;;;;;;27.66;nan;62708.97;5093289;28;20318;-61
2023/06/24 06:43:28;;;;;;;11.50;6.68;;;;;;;28.10;nan;62743.66;5093043;28;20172;-62
2023/06/24 06:45:53;;;;;;;8.68;5.30;;;;;;;27.94;nan;62688.50;5093918;28;20240;-61
2023/06/24 06:48:19;;;;;;;9.65;6.00;;;;;;;27.70;nan;62619.00;5093002;28;20173;-62
2023/06/24 06:50:46;;;;;;;10.02;5.55;;;;;;;27.56;nan;62721.16;5093515;28;20210;-60
2023/06/24 06:53:12;;;;;;;8.82;5.72;;;;;;;27.52;nan;62640.97;5093209;28;20572;-61
2023/06/24 06:55:39;;;;;;;9.27;6.15;;;;;;;27.55;nan;62664.84;5093129;28;20193;-62
2023/06/24 06:58:04;;;;;;;9.00;6.10;;;;;;;;;;5093502;28;20716;-63
2023/06/24 07:00:30;;;;;;;11.02;6.45;;;;;;;27.29;nan;62688.13;5093508;28;20161;-61
2023/06/24 07:02:55;;;;;;;9.70;6.63;;;;;;;27.16;nan;62539.38;5093467;28;20231;-61
2023/06/24 07:05:20;;;;;;;9.68;5.90;;;;;;;27.18;nan;62665.03;5093432;28;20268;-62
2023/06/24 07:07:46;;;;;;;9.02;5.68;;;;;;;27.23;nan;62518.53;5091984;28;20185;-62
2023/06/24 07:10:12;;;;;;;8.35;5.75;;;;;;;27.65;nan;62692.63;5093108;28;20189;-60
2023/06/24 07:12:38;;;;;;;10.98;6.43;;;;;;;27.63;nan;62584.72;5092864;28;20184;-61
2023/06/24 07:15:04;;;;;;;10.25;6.20;;;;;;;27.90;nan;62697.06;5092721;28;20207;-61
2023/06/24 07:17:29;;;;;;;10.90;5.85;;;;;;;28.12;nan;62929.38;5092872;28;20180;-62
2023/06/24 07:19:55;;;;;;;9.82;6.20;;;;;;;28.32;nan;62781.47;5092884;28;20538;-63
2023/06/24 07:22:20;;;;;;;8.45;5.43;;;;;;;27.95;nan;62652.31;5092660;28;20226;-60
2023/06/24 07:24:46;;;;;;;11.60;5.60;;;;;;;27.89;nan;62787.88;5092765;28;20210;-61
2023/06/24 07:27:11;;;;;;;9.23;6.00;;;;;;;28.23;nan;63022.94;5092622;28;20222;-62
2023/06/24 07:29:37;;;;;;;9.32;5.80;;;;;;;28.43;nan;62854.00;5092765;28;20678;-62
2023/06/24 07:32:02;;;;;;;9.40;5.50;;;;;;;28.89;nan;62848.94;5092931;28;20177;-63
2023/06/24 07:34:30;;;;;;;8.55;5.60;;;;;;;26.93;nan;62644.81;5092668;28;20169;-61
2023/06/24 07:36:55;;;;;;;11.93;6.28;;;;;;;29.18;nan;62886.91;5092401;28;20200;-60
2023/06/24 07:39:21;;;;;;;8.90;5.82;;;;;;;28.62;nan;62846.31;5092233;28;20191;-60
2023/06/24 07:41:46;;;;;;;10.20;6.00;;;;;;;28.71;nan;62865.13;5092336;28;20627;-60
2023/06/24 07:44:11;;;;;;;9.63;5.90;;;;;;;28.41;nan;62825.97;5092257;28;20256;-59
2023/06/24 07:46:37;;;;;;;9.40;5.75;;;;;;;28.53;nan;62731.91;5092467;28;20181;-62
2023/06/24 07:49:02;;;;;;;8.80;5.63;;;;;;;28.61;nan;62837.25;5092448;28;20264;-62
2023/06/24 07:51:28;;;;;;;8.00;5.55;;;;;;;28.46;nan;62720.69;5092416;28;20208;-61
2023/06/24 07:53:53;;;;;;;9.43;6.07;;;;;;;28.58;nan;62905.41;5092049;28;20283;-61
2023/06/24 07:56:19;;;;;;;8.98;5.85;;;;;;;29.03;nan;62871.75;5092240;28;20243;-61
2023/06/24 07:58:44;;;;;;;8.00;5.18;;;;;;;28.98;nan;62927.13;5092087;28;20168;-60
2023/06/24 08:01:10;;;;;;;8.75;5.88;;;;;;;29.21;nan;63106.28;5091978;28;20176;-59
2023/06/24 08:03:37;;;;;;;11.68;5.47;;;;;;;28.75;nan;62838.13;5092071;28;20172;-60
2023/06/24 08:06:02;;;;;;;8.70;5.57;;;;;;;28.06;nan;62699.06;5092399;28;20200;-61
2023/06/24 08:08:28;;;;;;;8.77;5.50;;;;;;;28.30;nan;62755.50;5092098;28;20580;-59
2023/06/24 08:10:53;;;;;;;8.98;5.28;;;;;;;28.67;nan;62792.09;5090821;28;20172;-60
2023/06/24 08:13:19;;;;;;;8.20;5.05;;;;;;;28.50;nan;62762.66;5091972;28;20207;-61
2023/06/24 08:15:44;;;;;;;7.13;4.95;;;;;;;28.25;nan;62642.00;5092110;28;20274;-61
2023/06/24 08:18:10;;;;;;;9.23;5.32;;;;;;;28.51;nan;62708.56;5091993;28;20280;-59
2023/06/24 08:20:35;;;;;;;7.82;4.53;;;;;;;28.93;nan;62843.00;5092010;28;20251;-58
2023/06/24 08:23:01;;;;;;;8.25;5.20;;;;;;;28.93;nan;62856.16;5091679;28;20632;-59
2023/06/24 08:25:27;;;;;;;10.45;5.63;;;;;;;28.70;nan;62861.31;5091935;28;20160;-59
2023/06/24 08:27:52;;;;;;;9.98;5.47;;;;;;;28.23;nan;62770.56;5091979;28;20183;-62
2023/06/24 08:30:18;;;;;;;7.40;4.97;;;;;;;28.52;nan;62824.88;5091916;28;20661;-61
2023/06/24 08:32:44;;;;;;;9.02;5.07;;;;;;;28.64;nan;62741.31;5092208;28;20157;-60
2023/06/24 08:35:09;;;;;;;7.78;5.18;;;;;;;29.23;nan;62963.75;5091882;28;20188;-61
2023/06/24 08:37:36;;;;;;;8.32;5.13;;;;;;;29.49;nan;62964.13;5091972;28;20549;-62
2023/06/24 08:40:01;;;;;;;8.10;5.20;;;;;;;29.59;nan;62903.91;5092484;28;20161;-60
2023/06/24 08:42:27;;;;;;;8.90;5.40;;;;;;;29.70;nan;62963.94;5092523;28;20168;-60
2023/06/24 08:44:52;;;;;;;8.15;5.43;;;;;;;29.55;nan;62926.22;5092089;28;20168;-59
2023/06/24 08:47:18;;;;;;;9.30;4.97;;;;;;;29.64;nan;62893.84;5091665;28;20172;-60
2023/06/24 08:49:53;;;;;;;8.20;5.35;;;;;;;29.36;nan;62886.53;5092070;28;20611;-60
2023/06/24 08:52:21;;;;;;;7.88;5.30;;;;;;;29.25;nan;62825.91;5091850;28;20207;-61
2023/06/24 08:54:50;;;;;;;9.38;5.55;;;;;;;29.23;nan;62981.59;5090053;28;20165;-61
2023/06/24 08:57:15;;;;;;;10.18;5.72;;;;;;;29.32;nan;63144.72;5090332;28;20181;-60
2023/06/24 08:59:42;;;;;;;8.98;5.68;;;;;;;29.48;nan;63146.78;5091200;28;20188;-59
2023/06/24 09:02:07;;;;;;;7.85;5.35;;;;;;;29.44;nan;62968.31;5090767;28;20653;-61
2023/06/24 09:04:34;;;;;;;8.23;5.38;;;;;;;29.99;nan;62994.09;5091164;28;20647;-60
2023/06/24 09:06:59;;;;;;;8.73;5.55;;;;;;;30.25;nan;63105.72;5095127;28;20177;-60
2023/06/24 09:09:25;;;;;;;8.13;5.13;;;;;;;30.13;nan;63039.19;5095490;28;20176;-59
2023/06/24 09:11:59;;;;;;;7.78;4.72;;;;;;;30.53;nan;63093.13;5095931;28;20161;-60
2023/06/24 09:14:26;;;;;;;8.73;5.30;;;;;;;30.81;nan;63124.19;5095971;28;20272;-60
2023/06/24 09:16:54;;;;;;;8.45;5.53;;;;;;;30.73;nan;63146.66;5095826;28;20354;-61
2023/06/24 09:19:23;;;;;;;8.80;5.47;;;;;;;30.84;nan;63117.09;5095873;28;20558;-61
2023/06/24 09:21:49;;;;;;;7.88;5.90;;;;;;;30.52;nan;63080.88;5095899;28;20230;-60
2023/06/24 09:24:14;;;;;;;8.85;5.50;;;;;;;30.70;nan;63199.22;5095293;28;20169;-60
2023/06/24 09:26:44;;;;;;;8.43;5.28;;;;;;;30.09;nan;62937.03;5095432;28;20173;-61
2023/06/24 09:29:10;;;;;;;9.85;5.65;;;;;;;30.02;nan;62932.19;5095451;28;20181;-61
2023/06/24 09:31:35;;;;;;;8.52;5.47;;;;;;;30.05;nan;62995.72;5095155;28;20705;-60
2023/06/24 09:34:01;;;;;;;8.30;4.88;;;;;;;29.82;nan;62965.16;5095831;28;20255;-60
2023/06/24 09:36:26;;;;;;;10.68;5.70;;;;;;;30.11;nan;63235.25;5095204;28;20218;-60
2023/06/24 09:38:51;;;;;;;11.15;5.53;;;;;;;29.88;nan;62974.09;5095275;28;20263;-62
2023/06/24 09:41:17;;;;;;;9.95;5.72;;;;;;;29.62;nan;62923.72;5095709;28;20177;-61
2023/06/24 09:43:47;;;;;;;8.40;5.47;;;;;;;30.01;nan;63039.13;5095412;28;20169;-61
2023/06/24 09:46:14;;;;;;;8.50;5.20;;;;;;;29.77;nan;62927.78;5095117;28;20180;-61
2023/06/24 09:48:40;;;;;;;8.38;5.65;;;;;;;30.26;nan;62988.78;5095156;28;20238;-61
2023/06/24 09:51:05;;;;;;;7.30;4.95;;;;;;;30.36;nan;63046.59;5095295;28;20585;-60
2023/06/24 09:53:34;;;;;;;9.60;5.45;;;;;;;30.27;nan;63132.38;5095040;28;20169;-61
2023/06/24 09:56:02;;;;;;;10.07;5.18;;;;;;;30.52;nan;63326.28;5095165;28;20235;-60
2023/06/24 09:58:35;;;;;;;6.78;4.97;;;;;;;30.60;nan;63095.91;5093594;28;20181;-61
2023/06/24 10:01:05;;;;;;;9.52;5.28;;;;;;;30.15;nan;63025.69;5095363;28;20192;-61
2023/06/24 10:03:33;;;;;;;8.57;5.20;;;;;;;30.15;nan;63107.97;5094852;28;20687;-60
2023/06/24 10:06:00;;;;;;;7.97;5.05;;;;;;;30.18;nan;63147.78;5094696;28;20226;-61
2023/06/24 10:08:27;;;;;;;8.85;5.38;;;;;;;30.67;nan;63090.19;5094882;28;20221;-60
2023/06/24 10:10:52;;;;;;;8.13;5.50;;;;;;;30.38;nan;63144.44;5094661;28;20169;-61
2023/06/24 10:13:18;;;;;;;7.47;5.28;;;;;;;30.12;nan;62988.50;5094699;28;20176;-60
2023/06/24 10:15:44;;;;;;;8.82;5.03;;;;;;;30.25;nan;63060.91;5094617;28;20264;-61
2023/06/24 10:18:37;;;;;;;7.88;5.20;;;;;;;30.25;nan;63045.66;5093033;28;20169;-60
2023/06/24 10:21:07;;;;;;;6.43;4.63;;;;;;;30.27;nan;63205.63;5088793;28;20187;-60
2023/06/24 10:23:47;;;;;;;8.82;5.43;;;;;;;30.74;nan;63142.53;5095439;28;20218;-61
2023/06/24 10:26:31;;;;;;;7.82;5.30;;;;;;;27.80;nan;62814.34;5094296;28;20168;-59
2023/06/24 10:29:06;;;;;;;8.68;5.07;;;;;;;30.48;nan;63094.72;5094616;28;20608;-60
2023/06/24 10:31:43;;;;;;;9.00;5.28;;;;;;;30.53;nan;63138.00;5094760;28;20231;-60
2023/06/24 10:34:31;;;;;;;7.95;5.15;;;;;;;30.58;nan;63109.44;5093694;28;20628;-60
2023/06/24 10:37:02;;;;;;;7.88;4.88;;;;;;;30.54;nan;63123.31;5093418;28;20237;-59
2023/06/24 10:39:50;;;;;;;9.68;5.30;;;;;;;31.03;nan;63202.94;5094143;28;20181;-59
2023/06/24 10:42:45;;;;;;;7.85;4.72;;;;;;;30.90;nan;63087.03;5074104;28;20158;-61
2023/06/24 10:45:11;;;;;;;7.53;4.80;;;;;;;30.89;nan;63194.16;5084247;28;20199;-60
2023/06/24 10:47:44;;;;;;;6.38;4.65;;;;;;;30.97;nan;63118.84;5094044;28;20545;-60
2023/06/24 10:50:13;;;;;;;7.88;5.15;;;;;;;31.26;nan;63299.63;5093360;28;20173;-60
2023/06/24 10:52:40;;;;;;;8.10;5.15;;;;;;;31.16;nan;63259.59;5091676;28;20216;-60
2023/06/24 10:55:09;;;;;;;7.47;4.97;;;;;;;31.51;nan;63299.38;5093551;28;20187;-61
2023/06/24 10:57:36;;;;;;;7.72;5.00;;;;;;;31.54;nan;63226.75;5094209;28;20161;-60
2023/06/24 11:00:03;;;;;;;8.98;5.00;;;;;;;31.52;nan;63301.13;5093607;28;20256;-59
2023/06/24 11:02:29;;;;;;;8.38;5.28;;;;;;;31.33;nan;63189.38;5093649;28;20224;-61
2023/06/24 11:05:00;;;;;;;6.70;4.95;;;;;;;31.46;nan;63228.13;5093629;28;20168;-62
2023/06/24 11:07:30;;;;;;;8.95;5.22;;;;;;;31.31;nan;63168.56;5093526;28;20237;-61
2023/06/24 11:10:05;;;;;;;7.05;5.18;;;;;;;31.02;nan;63172.75;5093770;28;20639;-61
2023/06/24 11:12:35;;;;;;;8.10;5.28;;;;;;;31.40;nan;63234.41;5093994;28;20614;-60
2023/06/24 11:15:04;;;;;;;7.50;5.03;;;;;;;31.04;nan;63225.22;5093528;28;20172;-60
2023/06/24 11:17:29;;;;;;;8.32;5.32;;;;;;;30.90;nan;63129.84;5093597;28;20165;-60
2023/06/24 11:19:56;;;;;;;8.55;5.25;;;;;;;31.05;nan;63167.69;5093397;28;20238;-61
2023/06/24 11:22:22;;;;;;;8.00;5.55;;;;;;;30.83;nan;63111.25;5093164;28;20176;-60
2023/06/24 11:24:48;;;;;;;8.63;5.53;;;;;;;31.17;nan;63303.00;5093454;28;20247;-61
2023/06/24 11:27:14;;;;;;;8.90;5.60;;;;;;;31.18;nan;63214.34;5092431;28;20799;-60
2023/06/24 11:29:39;;;;;;;7.72;5.40;;;;;;;31.11;nan;63468.38;5092614;28;20176;-60
2023/06/24 11:32:07;;;;;;;9.00;5.93;;;;;;;;;;5092572;28;20631;-60
2023/06/24 11:34:32;;;;;;;9.57;5.78;;;;;;;31.33;nan;63226.34;5092253;28;20675;-60
2023/06/24 11:36:58;;;;;;;9.73;6.00;;;;;;;31.13;nan;63222.38;5092657;28;20279;-60
2023/06/24 11:39:29;;;;;;;7.35;5.28;;;;;;;31.20;nan;63126.28;5092558;28;20563;-60
2023/06/24 11:41:57;;;;;;;9.07;5.45;;;;;;;31.41;nan;63246.13;5092552;28;20298;-60
2023/06/24 11:44:26;;;;;;;8.98;5.38;;;;;;;31.12;nan;63210.66;5092553;28;20702;-60
2023/06/24 11:46:52;;;;;;;8.45;5.97;;;;;;;31.46;nan;63214.31;5092638;28;20169;-60
2023/06/24 11:49:18;;;;;;;9.10;6.00;;;;;;;31.21;nan;63302.38;5092062;28;20180;-60
2023/06/24 11:51:49;;;;;;;9.07;5.80;;;;;;;31.35;nan;63461.19;5092404;28;20293;-61